sensor_id;sensor_type;location;lat;lon;timestamp;temperature;humidity
62154;DHT22;48140;45.486;9.226;2023-01-20T00:00:46;4.00;99.90
62154;DHT22;48140;45.486;9.226;2023-01-20T00:03:11;4.00;99.90
62154;DHT22;48140;45.486;9.226;2023-01-20T00:05:37;4.00;99.90
62154;DHT22;48140;45.486;9.226;2023-01-20T00:08:03;4.00;99.90
62154;DHT22;48140;45.486;9.226;2023-01-20T00:10:28;3.90;99.90
62154;DHT22;48140;45.486;9.226;2023-01-20T00:12:54;3.90;99.90
62154;DHT22;48140;45.486;9.226;2023-01-20T00:15:19;3.90;99.90
62154;DHT22;48140;45.486;9.226;2023-01-20T00:17:45;3.90;99.90
62154;DHT22;48140;45.486;9.226;2023-01-20T00:20:11;4.40;99.90
62154;DHT22;48140;45.486;9.226;2023-01-20T00:22:36;3.90;99.90
62154;DHT22;48140;45.486;9.226;2023-01-20T00:25:08;3.90;99.90
62154;DHT22;48140;45.486;9.226;2023-01-20T00:27:34;4.00;99.90
62154;DHT22;48140;45.486;9.226;2023-01-20T00:29:59;4.00;99.90
62154;DHT22;48140;45.486;9.226;2023-01-20T00:32:25;4.10;99.90
62154;DHT22;48140;45.486;9.226;2023-01-20T00:34:50;4.10;99.90
62154;DHT22;48140;45.486;9.226;2023-01-20T00:37:16;4.10;99.90
62154;DHT22;48140;45.486;9.226;2023-01-20T00:39:41;4.10;99.90
62154;DHT22;48140;45.486;9.226;2023-01-20T00:42:07;4.20;99.90
62154;DHT22;48140;45.486;9.226;2023-01-20T00:44:33;4.20;99.90
62154;DHT22;48140;45.486;9.226;2023-01-20T00:46:58;4.20;99.90
62154;DHT22;48140;45.486;9.226;2023-01-20T00:49:24;4.50;99.60
62154;DHT22;48140;45.486;9.226;2023-01-20T00:51:49;4.30;99.20
62154;DHT22;48140;45.486;9.226;2023-01-20T00:54:15;4.20;99.90
62154;DHT22;48140;45.486;9.226;2023-01-20T00:56:41;4.30;99.70
62154;DHT22;48140;45.486;9.226;2023-01-20T00:59:08;4.30;99.90
62154;DHT22;48140;45.486;9.226;2023-01-20T01:01:33;4.20;99.90
62154;DHT22;48140;45.486;9.226;2023-01-20T01:03:59;4.20;99.90
62154;DHT22;48140;45.486;9.226;2023-01-20T01:06:25;4.20;99.90
62154;DHT22;48140;45.486;9.226;2023-01-20T01:08:50;4.30;99.90
62154;DHT22;48140;45.486;9.226;2023-01-20T01:11:17;4.30;99.90
62154;DHT22;48140;45.486;9.226;2023-01-20T01:13:42;4.30;99.90
62154;DHT22;48140;45.486;9.226;2023-01-20T01:16:10;4.20;99.90
62154;DHT22;48140;45.486;9.226;2023-01-20T01:18:36;4.20;99.90
62154;DHT22;48140;45.486;9.226;2023-01-20T01:21:07;4.20;99.90
62154;DHT22;48140;45.486;9.226;2023-01-20T01:23:33;4.20;99.90
62154;DHT22;48140;45.486;9.226;2023-01-20T01:25:58;4.20;99.90
62154;DHT22;48140;45.486;9.226;2023-01-20T01:28:24;4.20;99.90
62154;DHT22;48140;45.486;9.226;2023-01-20T01:30:49;4.10;99.90
62154;DHT22;48140;45.486;9.226;2023-01-20T01:33:15;4.20;99.90
62154;DHT22;48140;45.486;9.226;2023-01-20T01:35:41;4.20;99.90
62154;DHT22;48140;45.486;9.226;2023-01-20T01:38:06;4.10;99.90
62154;DHT22;48140;45.486;9.226;2023-01-20T01:40:32;4.00;99.90
62154;DHT22;48140;45.486;9.226;2023-01-20T01:42:58;4.00;99.90
62154;DHT22;48140;45.486;9.226;2023-01-20T01:45:26;4.00;99.90
62154;DHT22;48140;45.486;9.226;2023-01-20T01:48:03;4.00;99.90
62154;DHT22;48140;45.486;9.226;2023-01-20T01:50:43;4.00;99.90
62154;DHT22;48140;45.486;9.226;2023-01-20T01:53:12;4.00;99.90
62154;DHT22;48140;45.486;9.226;2023-01-20T01:55:41;4.00;99.90
62154;DHT22;48140;45.486;9.226;2023-01-20T01:58:10;4.00;99.90
62154;DHT22;48140;45.486;9.226;2023-01-20T02:00:38;4.00;99.90
62154;DHT22;48140;45.486;9.226;2023-01-20T02:03:05;4.00;99.90
62154;DHT22;48140;45.486;9.226;2023-01-20T02:05:32;3.90;99.90
62154;DHT22;48140;45.486;9.226;2023-01-20T02:07:58;3.80;99.90
62154;DHT22;48140;45.486;9.226;2023-01-20T02:10:24;3.80;99.90
62154;DHT22;48140;45.486;9.226;2023-01-20T02:12:50;3.80;99.90
62154;DHT22;48140;45.486;9.226;2023-01-20T02:15:17;3.90;99.90
62154;DHT22;48140;45.486;9.226;2023-01-20T02:26:11;3.90;99.90
62154;DHT22;48140;45.486;9.226;2023-01-20T02:28:49;3.90;99.90
62154;DHT22;48140;45.486;9.226;2023-01-20T02:34:12;3.70;99.90
62154;DHT22;48140;45.486;9.226;2023-01-20T02:36:46;3.80;99.90
62154;DHT22;48140;45.486;9.226;2023-01-20T02:39:29;3.80;99.90
62154;DHT22;48140;45.486;9.226;2023-01-20T02:42:07;3.80;99.90
62154;DHT22;48140;45.486;9.226;2023-01-20T02:47:22;3.80;99.90
62154;DHT22;48140;45.486;9.226;2023-01-20T02:50:00;3.70;99.90
62154;DHT22;48140;45.486;9.226;2023-01-20T02:52:33;3.70;99.90
62154;DHT22;48140;45.486;9.226;2023-01-20T02:55:04;3.70;99.90
62154;DHT22;48140;45.486;9.226;2023-01-20T02:57:36;3.70;99.90
62154;DHT22;48140;45.486;9.226;2023-01-20T03:00:07;3.80;99.90
62154;DHT22;48140;45.486;9.226;2023-01-20T03:02:36;3.80;99.90
62154;DHT22;48140;45.486;9.226;2023-01-20T03:05:07;3.80;99.90
62154;DHT22;48140;45.486;9.226;2023-01-20T03:07:36;3.70;99.90
62154;DHT22;48140;45.486;9.226;2023-01-20T03:10:06;3.70;99.90
62154;DHT22;48140;45.486;9.226;2023-01-20T03:12:41;3.60;99.90
62154;DHT22;48140;45.486;9.226;2023-01-20T03:15:09;3.60;99.90
62154;DHT22;48140;45.486;9.226;2023-01-20T03:17:35;3.60;99.90
62154;DHT22;48140;45.486;9.226;2023-01-20T03:20:01;3.70;99.90
62154;DHT22;48140;45.486;9.226;2023-01-20T03:22:28;3.60;99.90
62154;DHT22;48140;45.486;9.226;2023-01-20T03:24:55;3.50;99.90
62154;DHT22;48140;45.486;9.226;2023-01-20T03:27:25;3.50;99.90
62154;DHT22;48140;45.486;9.226;2023-01-20T03:29:51;3.50;99.90
62154;DHT22;48140;45.486;9.226;2023-01-20T03:32:18;3.50;99.90
62154;DHT22;48140;45.486;9.226;2023-01-20T03:34:51;3.50;99.90
62154;DHT22;48140;45.486;9.226;2023-01-20T03:37:17;3.50;99.90
62154;DHT22;48140;45.486;9.226;2023-01-20T03:39:43;3.50;99.90
62154;DHT22;48140;45.486;9.226;2023-01-20T03:42:13;3.50;99.90
62154;DHT22;48140;45.486;9.226;2023-01-20T03:45:11;3.50;99.90
62154;DHT22;48140;45.486;9.226;2023-01-20T03:48:17;3.60;99.90
62154;DHT22;48140;45.486;9.226;2023-01-20T03:50:55;3.50;99.90
62154;DHT22;48140;45.486;9.226;2023-01-20T03:53:47;3.50;99.90
62154;DHT22;48140;45.486;9.226;2023-01-20T03:56:42;3.40;99.90
62154;DHT22;48140;45.486;9.226;2023-01-20T03:59:12;3.40;99.90
62154;DHT22;48140;45.486;9.226;2023-01-20T04:01:41;3.40;99.90
62154;DHT22;48140;45.486;9.226;2023-01-20T04:04:10;3.40;99.90
62154;DHT22;48140;45.486;9.226;2023-01-20T04:06:37;3.40;99.90
62154;DHT22;48140;45.486;9.226;2023-01-20T04:09:11;3.40;99.90
62154;DHT22;48140;45.486;9.226;2023-01-20T04:11:39;3.40;99.90
62154;DHT22;48140;45.486;9.226;2023-01-20T04:14:07;3.40;99.90
62154;DHT22;48140;45.486;9.226;2023-01-20T04:16:33;3.40;99.90
62154;DHT22;48140;45.486;9.226;2023-01-20T04:18:59;3.40;99.90
62154;DHT22;48140;45.486;9.226;2023-01-20T04:21:44;3.50;99.90
62154;DHT22;48140;45.486;9.226;2023-01-20T04:24:19;3.50;99.90
62154;DHT22;48140;45.486;9.226;2023-01-20T04:26:45;3.50;99.90
62154;DHT22;48140;45.486;9.226;2023-01-20T04:29:11;4.40;99.90
62154;DHT22;48140;45.486;9.226;2023-01-20T04:31:37;3.60;99.90
62154;DHT22;48140;45.486;9.226;2023-01-20T04:34:03;3.60;99.90
62154;DHT22;48140;45.486;9.226;2023-01-20T04:36:29;3.60;99.90
62154;DHT22;48140;45.486;9.226;2023-01-20T04:38:55;3.60;99.90
62154;DHT22;48140;45.486;9.226;2023-01-20T04:41:21;3.60;99.90
62154;DHT22;48140;45.486;9.226;2023-01-20T04:43:47;3.60;99.90
62154;DHT22;48140;45.486;9.226;2023-01-20T04:46:14;3.60;99.90
62154;DHT22;48140;45.486;9.226;2023-01-20T04:48:40;3.60;99.90
62154;DHT22;48140;45.486;9.226;2023-01-20T04:51:07;3.60;99.90
62154;DHT22;48140;45.486;9.226;2023-01-20T04:53:33;3.50;99.90
62154;DHT22;48140;45.486;9.226;2023-01-20T04:55:59;3.50;99.90
62154;DHT22;48140;45.486;9.226;2023-01-20T04:58:24;3.50;99.90
62154;DHT22;48140;45.486;9.226;2023-01-20T05:00:50;3.40;99.90
62154;DHT22;48140;45.486;9.226;2023-01-20T05:03:16;3.40;99.90
62154;DHT22;48140;45.486;9.226;2023-01-20T05:05:41;3.40;99.90
62154;DHT22;48140;45.486;9.226;2023-01-20T05:08:07;3.40;99.90
62154;DHT22;48140;45.486;9.226;2023-01-20T05:10:48;3.30;99.90
62154;DHT22;48140;45.486;9.226;2023-01-20T05:13:13;3.30;99.90
62154;DHT22;48140;45.486;9.226;2023-01-20T05:15:40;3.30;99.90
62154;DHT22;48140;45.486;9.226;2023-01-20T05:18:07;3.30;99.90
62154;DHT22;48140;45.486;9.226;2023-01-20T05:20:32;3.30;99.90
62154;DHT22;48140;45.486;9.226;2023-01-20T05:22:58;3.20;99.90
62154;DHT22;48140;45.486;9.226;2023-01-20T05:25:24;3.20;99.90
62154;DHT22;48140;45.486;9.226;2023-01-20T05:27:49;3.10;99.90
62154;DHT22;48140;45.486;9.226;2023-01-20T05:30:15;3.10;99.90
62154;DHT22;48140;45.486;9.226;2023-01-20T05:32:41;3.10;99.90
62154;DHT22;48140;45.486;9.226;2023-01-20T05:35:07;3.10;99.90
62154;DHT22;48140;45.486;9.226;2023-01-20T05:37:33;3.10;99.90
62154;DHT22;48140;45.486;9.226;2023-01-20T05:39:58;3.10;99.90
62154;DHT22;48140;45.486;9.226;2023-01-20T05:42:24;3.10;99.90
62154;DHT22;48140;45.486;9.226;2023-01-20T05:44:49;3.10;99.90
62154;DHT22;48140;45.486;9.226;2023-01-20T05:47:15;3.10;99.90
62154;DHT22;48140;45.486;9.226;2023-01-20T05:49:40;3.20;99.90
62154;DHT22;48140;45.486;9.226;2023-01-20T05:52:06;3.20;99.90
62154;DHT22;48140;45.486;9.226;2023-01-20T05:54:32;3.30;99.90
62154;DHT22;48140;45.486;9.226;2023-01-20T05:56:57;3.40;99.90
62154;DHT22;48140;45.486;9.226;2023-01-20T05:59:23;3.40;99.90
62154;DHT22;48140;45.486;9.226;2023-01-20T06:01:49;3.40;99.90
62154;DHT22;48140;45.486;9.226;2023-01-20T06:04:15;3.40;99.90
62154;DHT22;48140;45.486;9.226;2023-01-20T06:06:41;3.40;99.90
62154;DHT22;48140;45.486;9.226;2023-01-20T06:09:07;3.40;99.90
62154;DHT22;48140;45.486;9.226;2023-01-20T06:11:34;3.30;99.90
62154;DHT22;48140;45.486;9.226;2023-01-20T06:13:59;3.50;99.90
62154;DHT22;48140;45.486;9.226;2023-01-20T06:16:25;3.50;99.90
62154;DHT22;48140;45.486;9.226;2023-01-20T06:18:50;3.50;99.90
62154;DHT22;48140;45.486;9.226;2023-01-20T06:21:16;3.40;99.90
62154;DHT22;48140;45.486;9.226;2023-01-20T06:23:42;3.40;99.90
62154;DHT22;48140;45.486;9.226;2023-01-20T06:26:10;3.50;99.90
62154;DHT22;48140;45.486;9.226;2023-01-20T06:28:37;3.50;99.90
62154;DHT22;48140;45.486;9.226;2023-01-20T06:31:05;3.50;99.90
62154;DHT22;48140;45.486;9.226;2023-01-20T06:33:32;3.40;99.90
62154;DHT22;48140;45.486;9.226;2023-01-20T06:35:58;3.50;99.90
62154;DHT22;48140;45.486;9.226;2023-01-20T06:38:25;3.50;99.90
62154;DHT22;48140;45.486;9.226;2023-01-20T06:40:59;3.40;99.90
62154;DHT22;48140;45.486;9.226;2023-01-20T06:43:26;3.40;99.90
62154;DHT22;48140;45.486;9.226;2023-01-20T06:45:52;3.30;99.90
62154;DHT22;48140;45.486;9.226;2023-01-20T06:48:18;3.30;99.90
62154;DHT22;48140;45.486;9.226;2023-01-20T06:50:43;3.30;99.90
62154;DHT22;48140;45.486;9.226;2023-01-20T06:53:09;3.20;99.90
62154;DHT22;48140;45.486;9.226;2023-01-20T06:55:35;3.20;99.90
62154;DHT22;48140;45.486;9.226;2023-01-20T06:58:01;3.20;99.90
62154;DHT22;48140;45.486;9.226;2023-01-20T07:00:27;3.20;99.90
62154;DHT22;48140;45.486;9.226;2023-01-20T07:02:52;3.20;99.90
62154;DHT22;48140;45.486;9.226;2023-01-20T07:05:18;3.20;99.90
62154;DHT22;48140;45.486;9.226;2023-01-20T07:07:44;3.20;99.90
62154;DHT22;48140;45.486;9.226;2023-01-20T07:10:11;3.10;99.90
62154;DHT22;48140;45.486;9.226;2023-01-20T07:12:37;3.10;99.90
62154;DHT22;48140;45.486;9.226;2023-01-20T07:15:04;3.10;99.90
62154;DHT22;48140;45.486;9.226;2023-01-20T07:17:30;3.10;99.90
62154;DHT22;48140;45.486;9.226;2023-01-20T07:19:55;3.20;99.90
62154;DHT22;48140;45.486;9.226;2023-01-20T07:22:21;3.20;99.90
62154;DHT22;48140;45.486;9.226;2023-01-20T07:24:46;3.20;99.90
62154;DHT22;48140;45.486;9.226;2023-01-20T07:27:12;3.20;99.90
62154;DHT22;48140;45.486;9.226;2023-01-20T07:29:39;3.20;99.90
62154;DHT22;48140;45.486;9.226;2023-01-20T07:32:05;3.20;99.90
62154;DHT22;48140;45.486;9.226;2023-01-20T07:34:31;3.30;99.90
62154;DHT22;48140;45.486;9.226;2023-01-20T07:36:56;3.30;99.90
62154;DHT22;48140;45.486;9.226;2023-01-20T07:39:22;3.30;99.90
62154;DHT22;48140;45.486;9.226;2023-01-20T07:41:48;3.30;99.90
62154;DHT22;48140;45.486;9.226;2023-01-20T07:44:14;3.30;99.90
62154;DHT22;48140;45.486;9.226;2023-01-20T07:46:40;3.40;99.90
62154;DHT22;48140;45.486;9.226;2023-01-20T07:49:06;3.40;99.90
62154;DHT22;48140;45.486;9.226;2023-01-20T07:51:31;3.40;99.90
62154;DHT22;48140;45.486;9.226;2023-01-20T07:53:57;3.50;99.90
62154;DHT22;48140;45.486;9.226;2023-01-20T07:56:26;3.50;99.90
62154;DHT22;48140;45.486;9.226;2023-01-20T07:58:53;3.50;99.90
62154;DHT22;48140;45.486;9.226;2023-01-20T08:01:30;3.50;99.90
62154;DHT22;48140;45.486;9.226;2023-01-20T08:03:57;3.60;99.90
62154;DHT22;48140;45.486;9.226;2023-01-20T08:06:25;3.60;99.90
62154;DHT22;48140;45.486;9.226;2023-01-20T08:08:52;3.60;99.90
62154;DHT22;48140;45.486;9.226;2023-01-20T08:11:18;3.60;99.90
62154;DHT22;48140;45.486;9.226;2023-01-20T08:13:45;3.60;99.90
62154;DHT22;48140;45.486;9.226;2023-01-20T08:16:12;3.50;99.90
62154;DHT22;48140;45.486;9.226;2023-01-20T08:18:42;3.60;99.90
62154;DHT22;48140;45.486;9.226;2023-01-20T08:21:24;3.60;99.90
62154;DHT22;48140;45.486;9.226;2023-01-20T08:23:50;3.60;99.90
62154;DHT22;48140;45.486;9.226;2023-01-20T08:26:19;3.50;99.90
62154;DHT22;48140;45.486;9.226;2023-01-20T08:28:45;3.40;99.90
62154;DHT22;48140;45.486;9.226;2023-01-20T08:31:12;3.40;99.90
62154;DHT22;48140;45.486;9.226;2023-01-20T08:33:39;3.30;99.90
62154;DHT22;48140;45.486;9.226;2023-01-20T08:36:10;3.30;99.90
62154;DHT22;48140;45.486;9.226;2023-01-20T08:38:36;4.20;99.90
62154;DHT22;48140;45.486;9.226;2023-01-20T08:41:06;3.40;99.90
62154;DHT22;48140;45.486;9.226;2023-01-20T08:43:32;3.50;99.90
62154;DHT22;48140;45.486;9.226;2023-01-20T08:46:00;3.60;99.90
62154;DHT22;48140;45.486;9.226;2023-01-20T08:48:26;3.60;99.90
62154;DHT22;48140;45.486;9.226;2023-01-20T08:50:52;3.80;99.90
62154;DHT22;48140;45.486;9.226;2023-01-20T08:53:18;3.80;99.90
62154;DHT22;48140;45.486;9.226;2023-01-20T08:56:00;3.70;99.90
62154;DHT22;48140;45.486;9.226;2023-01-20T08:58:26;3.50;99.90
62154;DHT22;48140;45.486;9.226;2023-01-20T09:00:53;3.40;99.90
62154;DHT22;48140;45.486;9.226;2023-01-20T09:03:19;3.30;99.90
62154;DHT22;48140;45.486;9.226;2023-01-20T09:05:45;3.20;99.90
62154;DHT22;48140;45.486;9.226;2023-01-20T09:08:11;3.20;99.90
62154;DHT22;48140;45.486;9.226;2023-01-20T09:10:37;3.30;99.90
62154;DHT22;48140;45.486;9.226;2023-01-20T09:13:03;3.20;99.90
62154;DHT22;48140;45.486;9.226;2023-01-20T09:15:29;3.20;99.90
62154;DHT22;48140;45.486;9.226;2023-01-20T09:17:56;3.20;99.90
62154;DHT22;48140;45.486;9.226;2023-01-20T09:20:24;3.80;99.90
62154;DHT22;48140;45.486;9.226;2023-01-20T09:22:51;3.20;99.90
62154;DHT22;48140;45.486;9.226;2023-01-20T09:25:17;3.30;99.90
62154;DHT22;48140;45.486;9.226;2023-01-20T09:27:43;3.30;99.90
62154;DHT22;48140;45.486;9.226;2023-01-20T09:30:09;3.40;99.90
62154;DHT22;48140;45.486;9.226;2023-01-20T09:32:35;3.40;99.90
62154;DHT22;48140;45.486;9.226;2023-01-20T09:35:00;3.50;99.90
62154;DHT22;48140;45.486;9.226;2023-01-20T09:37:26;3.50;99.90
62154;DHT22;48140;45.486;9.226;2023-01-20T09:40:14;3.50;99.90
62154;DHT22;48140;45.486;9.226;2023-01-20T09:43:03;3.50;99.90
62154;DHT22;48140;45.486;9.226;2023-01-20T09:45:57;3.50;99.90
62154;DHT22;48140;45.486;9.226;2023-01-20T09:51:48;3.50;99.90
62154;DHT22;48140;45.486;9.226;2023-01-20T09:55:06;3.50;99.90
62154;DHT22;48140;45.486;9.226;2023-01-20T09:57:36;3.60;99.90
62154;DHT22;48140;45.486;9.226;2023-01-20T10:00:16;3.70;99.90
62154;DHT22;48140;45.486;9.226;2023-01-20T10:02:49;3.70;99.90
62154;DHT22;48140;45.486;9.226;2023-01-20T10:05:27;3.80;99.90
62154;DHT22;48140;45.486;9.226;2023-01-20T10:11:15;3.90;99.90
62154;DHT22;48140;45.486;9.226;2023-01-20T10:13:41;4.00;99.90
62154;DHT22;48140;45.486;9.226;2023-01-20T10:16:39;4.10;99.90
62154;DHT22;48140;45.486;9.226;2023-01-20T10:19:28;4.20;99.90
62154;DHT22;48140;45.486;9.226;2023-01-20T10:22:22;4.30;99.90
62154;DHT22;48140;45.486;9.226;2023-01-20T10:24:56;4.30;99.90
62154;DHT22;48140;45.486;9.226;2023-01-20T10:27:25;4.40;99.90
62154;DHT22;48140;45.486;9.226;2023-01-20T10:29:57;4.40;99.90
62154;DHT22;48140;45.486;9.226;2023-01-20T10:32:32;4.40;99.90
62154;DHT22;48140;45.486;9.226;2023-01-20T10:35:08;4.60;99.90
62154;DHT22;48140;45.486;9.226;2023-01-20T10:37:35;4.30;99.90
62154;DHT22;48140;45.486;9.226;2023-01-20T10:40:33;4.20;99.90
62154;DHT22;48140;45.486;9.226;2023-01-20T10:43:08;4.10;99.90
62154;DHT22;48140;45.486;9.226;2023-01-20T10:54:18;4.50;99.90
62154;DHT22;48140;45.486;9.226;2023-01-20T10:56:48;4.50;99.90
62154;DHT22;48140;45.486;9.226;2023-01-20T10:59:34;4.50;99.90
62154;DHT22;48140;45.486;9.226;2023-01-20T11:04:43;4.60;99.90
62154;DHT22;48140;45.486;9.226;2023-01-20T11:07:15;4.50;99.90
62154;DHT22;48140;45.486;9.226;2023-01-20T11:09:42;4.50;99.90
62154;DHT22;48140;45.486;9.226;2023-01-20T11:12:17;4.60;99.90
62154;DHT22;48140;45.486;9.226;2023-01-20T11:14:45;4.70;99.90
62154;DHT22;48140;45.486;9.226;2023-01-20T11:17:15;5.10;99.90
62154;DHT22;48140;45.486;9.226;2023-01-20T11:19:48;5.80;99.90
62154;DHT22;48140;45.486;9.226;2023-01-20T11:22:23;7.30;97.90
62154;DHT22;48140;45.486;9.226;2023-01-20T11:24:54;8.60;93.70
62154;DHT22;48140;45.486;9.226;2023-01-20T11:27:21;9.90;91.20
62154;DHT22;48140;45.486;9.226;2023-01-20T11:29:52;10.80;86.60
62154;DHT22;48140;45.486;9.226;2023-01-20T11:32:35;11.50;83.70
62154;DHT22;48140;45.486;9.226;2023-01-20T11:35:23;12.20;80.20
62154;DHT22;48140;45.486;9.226;2023-01-20T11:37:50;12.90;74.60
62154;DHT22;48140;45.486;9.226;2023-01-20T11:40:18;12.80;75.10
62154;DHT22;48140;45.486;9.226;2023-01-20T11:42:45;13.10;73.70
62154;DHT22;48140;45.486;9.226;2023-01-20T11:45:30;13.00;74.20
62154;DHT22;48140;45.486;9.226;2023-01-20T11:50:34;13.70;70.10
62154;DHT22;48140;45.486;9.226;2023-01-20T11:53:21;14.10;68.10
62154;DHT22;48140;45.486;9.226;2023-01-20T11:55:50;13.90;69.10
62154;DHT22;48140;45.486;9.226;2023-01-20T11:58:22;14.10;68.90
62154;DHT22;48140;45.486;9.226;2023-01-20T12:00:59;14.60;66.70
62154;DHT22;48140;45.486;9.226;2023-01-20T12:08:51;15.00;63.00
62154;DHT22;48140;45.486;9.226;2023-01-20T12:11:32;15.20;61.20
62154;DHT22;48140;45.486;9.226;2023-01-20T12:14:26;15.50;59.50
62154;DHT22;48140;45.486;9.226;2023-01-20T12:17:10;15.50;57.70
62154;DHT22;48140;45.486;9.226;2023-01-20T12:19:52;15.40;56.60
62154;DHT22;48140;45.486;9.226;2023-01-20T12:28:03;15.90;53.20
62154;DHT22;48140;45.486;9.226;2023-01-20T12:30:48;16.40;50.50
62154;DHT22;48140;45.486;9.226;2023-01-20T12:33:21;16.00;50.60
62154;DHT22;48140;45.486;9.226;2023-01-20T12:36:23;16.40;49.40
62154;DHT22;48140;45.486;9.226;2023-01-20T12:39:20;16.10;49.40
62154;DHT22;48140;45.486;9.226;2023-01-20T12:45:19;15.60;49.40
62154;DHT22;48140;45.486;9.226;2023-01-20T12:48:08;16.10;48.70
62154;DHT22;48140;45.486;9.226;2023-01-20T12:51:09;16.50;46.40
62154;DHT22;48140;45.486;9.226;2023-01-20T12:56:30;16.60;44.10
62154;DHT22;48140;45.486;9.226;2023-01-20T13:04:53;16.80;41.10
62154;DHT22;48140;45.486;9.226;2023-01-20T13:12:50;16.40;42.50
62154;DHT22;48140;45.486;9.226;2023-01-20T13:15:40;17.00;41.40
62154;DHT22;48140;45.486;9.226;2023-01-20T13:18:22;17.50;38.70
62154;DHT22;48140;45.486;9.226;2023-01-20T13:20:49;17.70;38.80
62154;DHT22;48140;45.486;9.226;2023-01-20T13:23:21;17.40;38.90
62154;DHT22;48140;45.486;9.226;2023-01-20T13:25:50;17.50;38.90
62154;DHT22;48140;45.486;9.226;2023-01-20T13:28:18;17.30;38.80
62154;DHT22;48140;45.486;9.226;2023-01-20T13:30:47;17.00;39.70
62154;DHT22;48140;45.486;9.226;2023-01-20T13:35:58;16.30;38.60
62154;DHT22;48140;45.486;9.226;2023-01-20T13:38:30;16.50;39.20
62154;DHT22;48140;45.486;9.226;2023-01-20T13:41:01;17.10;37.30
62154;DHT22;48140;45.486;9.226;2023-01-20T13:48:31;17.00;38.20
62154;DHT22;48140;45.486;9.226;2023-01-20T13:53:51;17.20;37.90
62154;DHT22;48140;45.486;9.226;2023-01-20T13:56:31;17.10;38.40
62154;DHT22;48140;45.486;9.226;2023-01-20T13:58:59;16.90;38.40
62154;DHT22;48140;45.486;9.226;2023-01-20T14:01:26;16.00;40.10
62154;DHT22;48140;45.486;9.226;2023-01-20T14:04:04;16.20;40.60
62154;DHT22;48140;45.486;9.226;2023-01-20T14:06:30;16.50;39.40
62154;DHT22;48140;45.486;9.226;2023-01-20T14:08:58;16.40;39.30
62154;DHT22;48140;45.486;9.226;2023-01-20T14:11:26;16.30;40.20
62154;DHT22;48140;45.486;9.226;2023-01-20T14:13:58;16.20;40.70
62154;DHT22;48140;45.486;9.226;2023-01-20T14:19:00;15.70;41.90
62154;DHT22;48140;45.486;9.226;2023-01-20T14:21:28;15.70;42.80
62154;DHT22;48140;45.486;9.226;2023-01-20T14:23:53;15.70;42.20
62154;DHT22;48140;45.486;9.226;2023-01-20T14:26:20;15.90;42.00
62154;DHT22;48140;45.486;9.226;2023-01-20T14:28:49;16.50;39.40
62154;DHT22;48140;45.486;9.226;2023-01-20T14:31:21;17.10;37.40
62154;DHT22;48140;45.486;9.226;2023-01-20T14:33:59;17.20;36.60
62154;DHT22;48140;45.486;9.226;2023-01-20T14:36:29;16.50;38.50
62154;DHT22;48140;45.486;9.226;2023-01-20T14:38:57;16.10;40.60
62154;DHT22;48140;45.486;9.226;2023-01-20T14:43:50;16.10;41.30
62154;DHT22;48140;45.486;9.226;2023-01-20T14:46:15;16.00;41.30
62154;DHT22;48140;45.486;9.226;2023-01-20T14:48:42;16.40;39.90
62154;DHT22;48140;45.486;9.226;2023-01-20T14:51:08;16.00;41.60
62154;DHT22;48140;45.486;9.226;2023-01-20T14:53:34;16.10;41.30
62154;DHT22;48140;45.486;9.226;2023-01-20T14:56:05;16.20;41.40
62154;DHT22;48140;45.486;9.226;2023-01-20T14:58:32;16.00;41.00
62154;DHT22;48140;45.486;9.226;2023-01-20T15:01:19;15.50;43.20
62154;DHT22;48140;45.486;9.226;2023-01-20T15:03:45;15.70;42.00
62154;DHT22;48140;45.486;9.226;2023-01-20T15:06:18;15.30;42.50
62154;DHT22;48140;45.486;9.226;2023-01-20T15:08:46;15.20;42.90
62154;DHT22;48140;45.486;9.226;2023-01-20T15:13:42;15.60;41.70
62154;DHT22;48140;45.486;9.226;2023-01-20T15:21:44;15.50;41.80
62154;DHT22;48140;45.486;9.226;2023-01-20T15:26:41;14.90;42.10
62154;DHT22;48140;45.486;9.226;2023-01-20T15:29:27;14.20;45.30
62154;DHT22;48140;45.486;9.226;2023-01-20T15:31:56;14.00;46.20
62154;DHT22;48140;45.486;9.226;2023-01-20T15:34:22;14.20;45.70
62154;DHT22;48140;45.486;9.226;2023-01-20T15:36:50;14.40;45.40
62154;DHT22;48140;45.486;9.226;2023-01-20T15:39:18;14.40;45.70
62154;DHT22;48140;45.486;9.226;2023-01-20T15:41:44;14.20;45.50
62154;DHT22;48140;45.486;9.226;2023-01-20T15:44:11;13.60;47.30
62154;DHT22;48140;45.486;9.226;2023-01-20T15:46:38;13.60;47.00
62154;DHT22;48140;45.486;9.226;2023-01-20T15:49:09;13.50;46.50
62154;DHT22;48140;45.486;9.226;2023-01-20T15:51:35;13.20;47.50
62154;DHT22;48140;45.486;9.226;2023-01-20T15:54:00;12.90;51.00
62154;DHT22;48140;45.486;9.226;2023-01-20T15:56:30;12.40;50.70
62154;DHT22;48140;45.486;9.226;2023-01-20T15:58:56;12.30;51.50
62154;DHT22;48140;45.486;9.226;2023-01-20T16:01:24;11.90;52.10
62154;DHT22;48140;45.486;9.226;2023-01-20T16:03:53;11.40;54.40
62154;DHT22;48140;45.486;9.226;2023-01-20T16:06:26;10.60;57.40
62154;DHT22;48140;45.486;9.226;2023-01-20T16:08:52;9.70;62.30
62154;DHT22;48140;45.486;9.226;2023-01-20T16:11:18;9.00;66.60
62154;DHT22;48140;45.486;9.226;2023-01-20T16:13:44;8.50;69.20
62154;DHT22;48140;45.486;9.226;2023-01-20T16:16:18;8.30;73.00
62154;DHT22;48140;45.486;9.226;2023-01-20T16:18:45;8.20;74.90
62154;DHT22;48140;45.486;9.226;2023-01-20T16:21:14;7.90;77.90
62154;DHT22;48140;45.486;9.226;2023-01-20T16:23:40;7.80;78.00
62154;DHT22;48140;45.486;9.226;2023-01-20T16:26:27;7.70;77.90
62154;DHT22;48140;45.486;9.226;2023-01-20T16:28:55;7.40;79.00
62154;DHT22;48140;45.486;9.226;2023-01-20T16:31:21;7.30;80.70
62154;DHT22;48140;45.486;9.226;2023-01-20T16:33:47;7.20;81.20
62154;DHT22;48140;45.486;9.226;2023-01-20T16:36:15;7.20;82.10
62154;DHT22;48140;45.486;9.226;2023-01-20T16:38:41;7.10;81.90
62154;DHT22;48140;45.486;9.226;2023-01-20T16:41:25;6.80;83.40
62154;DHT22;48140;45.486;9.226;2023-01-20T16:43:53;6.80;85.00
62154;DHT22;48140;45.486;9.226;2023-01-20T16:46:21;6.90;85.60
62154;DHT22;48140;45.486;9.226;2023-01-20T16:48:47;6.80;84.80
62154;DHT22;48140;45.486;9.226;2023-01-20T16:51:15;6.80;83.80
62154;DHT22;48140;45.486;9.226;2023-01-20T16:53:41;6.80;84.30
62154;DHT22;48140;45.486;9.226;2023-01-20T16:56:31;6.80;84.00
62154;DHT22;48140;45.486;9.226;2023-01-20T16:58:59;6.70;85.30
62154;DHT22;48140;45.486;9.226;2023-01-20T17:01:26;6.60;84.80
62154;DHT22;48140;45.486;9.226;2023-01-20T17:03:54;6.60;85.50
62154;DHT22;48140;45.486;9.226;2023-01-20T17:06:22;6.60;85.20
62154;DHT22;48140;45.486;9.226;2023-01-20T17:08:50;6.60;85.70
62154;DHT22;48140;45.486;9.226;2023-01-20T17:11:17;6.60;86.40
62154;DHT22;48140;45.486;9.226;2023-01-20T17:13:43;6.60;85.60
62154;DHT22;48140;45.486;9.226;2023-01-20T17:16:09;6.70;85.80
62154;DHT22;48140;45.486;9.226;2023-01-20T17:18:35;6.60;85.80
62154;DHT22;48140;45.486;9.226;2023-01-20T17:21:05;6.60;84.60
62154;DHT22;48140;45.486;9.226;2023-01-20T17:23:32;6.60;83.20
62154;DHT22;48140;45.486;9.226;2023-01-20T17:26:00;6.50;84.30
62154;DHT22;48140;45.486;9.226;2023-01-20T17:28:26;6.60;85.00